createdAt,value
2019-04-16T00:01:11.310Z,51.70
2019-04-16T00:03:43.951Z,51.90
2019-04-16T00:06:29.435Z,52.20
2019-04-16T00:09:06.106Z,52.40
2019-04-16T00:11:53.814Z,52.60
2019-04-16T00:14:42.017Z,52.90
2019-04-16T00:17:20.476Z,53.10
2019-04-16T00:19:50.925Z,53.30
2019-04-16T00:22:36.085Z,53.30
2019-04-16T00:25:06.091Z,53.60
2019-04-16T00:27:35.902Z,53.70
2019-04-16T00:30:09.384Z,53.90
2019-04-16T00:32:42.736Z,54.30
2019-04-16T00:35:20.239Z,54.50
2019-04-16T00:37:52.409Z,54.70
2019-04-16T00:40:26.409Z,55.00
2019-04-16T00:42:58.692Z,55.40
2019-04-16T00:45:29.123Z,55.50
2019-04-16T00:47:58.695Z,55.60
2019-04-16T00:50:30.770Z,55.70
2019-04-16T00:53:07.604Z,56.10
2019-04-16T00:55:34.971Z,56.20
2019-04-16T00:58:05.696Z,56.60
2019-04-16T01:00:36.684Z,56.80
2019-04-16T01:03:06.883Z,57.30
2019-04-16T01:05:37.225Z,57.50
2019-04-16T01:08:08.572Z,58.10
2019-04-16T01:10:51.036Z,58.50
2019-04-16T01:13:21.718Z,58.70
2019-04-16T01:15:56.337Z,59.10
2019-04-16T01:18:26.141Z,59.50
2019-04-16T01:20:57.300Z,59.80
2019-04-16T01:23:42.146Z,60.10
2019-04-16T01:26:29.554Z,60.40
2019-04-16T01:29:18.947Z,60.80
2019-04-16T01:32:10.322Z,61.00
2019-04-16T01:34:52.526Z,61.90
2019-04-16T01:37:31.182Z,62.10
2019-04-16T01:40:01.453Z,62.70
2019-04-16T01:42:31.519Z,62.80
2019-04-16T01:45:01.236Z,63.30
2019-04-16T01:47:35.781Z,63.60
2019-04-16T01:50:02.370Z,63.80
2019-04-16T01:52:31.952Z,65.80
2019-04-16T01:55:01.654Z,66.50
2019-04-16T01:57:34.176Z,66.90
2019-04-16T02:00:07.991Z,67.50
2019-04-16T02:02:37.236Z,67.40
2019-04-16T02:05:07.400Z,68.40
2019-04-16T02:07:38.136Z,69.40
2019-04-16T02:10:10.351Z,69.50
2019-04-16T02:12:43.674Z,70.20
2019-04-16T02:15:21.598Z,70.50
2019-04-16T02:18:00.754Z,71.10
2019-04-16T02:20:45.162Z,71.20
2019-04-16T02:23:16.866Z,72.00
2019-04-16T02:25:51.278Z,72.40
2019-04-16T02:28:27.966Z,73.10
2019-04-16T02:30:56.702Z,73.90
2019-04-16T02:33:26.581Z,74.30
2019-04-16T02:36:02.644Z,75.00
2019-04-16T02:38:33.291Z,75.50
2019-04-16T02:41:03.496Z,75.90
2019-04-16T02:43:41.269Z,76.70
2019-04-16T02:46:11.433Z,77.00
2019-04-16T02:48:49.934Z,77.60
2019-04-16T02:51:23.191Z,78.40
2019-04-16T02:54:00.023Z,78.70
2019-04-16T02:56:54.606Z,79.80
2019-04-16T02:59:28.148Z,80.40
2019-04-16T03:02:11.264Z,80.40
2019-04-16T03:04:45.757Z,80.20
2019-04-16T03:07:15.822Z,80.50
2019-04-16T03:09:45.779Z,81.60
2019-04-16T03:12:17.637Z,82.40
2019-04-16T03:14:51.196Z,82.30
2019-04-16T03:17:57.156Z,83.40
2019-04-16T03:20:29.318Z,82.90
2019-04-16T03:22:59.135Z,83.90
2019-04-16T03:25:28.875Z,84.10
2019-04-16T03:27:58.657Z,84.10
2019-04-16T03:30:28.582Z,84.40
2019-04-16T03:32:59.151Z,85.10
2019-04-16T03:35:29.046Z,85.20
2019-04-16T03:38:01.603Z,86.60
2019-04-16T03:40:30.523Z,88.40
2019-04-16T03:43:04.043Z,87.70
2019-04-16T03:45:32.179Z,89.70
2019-04-16T03:48:01.865Z,90.40
2019-04-16T03:50:32.234Z,90.80
2019-04-16T03:53:03.185Z,92.20
2019-04-16T03:55:33.161Z,93.30
2019-04-16T03:58:06.163Z,94.10
2019-04-16T04:00:34.603Z,95.00
2019-04-16T04:03:04.328Z,95.20
2019-04-16T04:05:35.088Z,95.40
2019-04-16T04:08:05.599Z,95.70
2019-04-16T04:10:37.093Z,96.20
2019-04-16T04:13:07.875Z,96.50
2019-04-16T04:15:38.062Z,96.60
2019-04-16T04:18:11.642Z,96.80
2019-04-16T04:20:40.067Z,96.70
2019-04-16T04:23:13.757Z,95.90
2019-04-16T04:25:43.325Z,96.20
2019-04-16T04:28:18.347Z,96.20
2019-04-16T04:30:44.489Z,96.30
2019-04-16T04:33:33.701Z,96.00
2019-04-16T04:36:03.424Z,96.20
2019-04-16T04:38:37.538Z,96.30
2019-04-16T04:41:06.739Z,96.60
2019-04-16T04:43:39.327Z,96.80
2019-04-16T04:46:12.563Z,96.70
2019-04-16T04:48:40.327Z,96.90
2019-04-16T04:51:10.123Z,96.90
2019-04-16T04:53:39.785Z,96.70
2019-04-16T04:56:09.640Z,96.60
2019-04-16T04:58:39.412Z,96.40
2019-04-16T05:01:12.263Z,96.20
2019-04-16T05:04:02.400Z,95.90
2019-04-16T05:06:35.669Z,96.20
2019-04-16T05:09:07.037Z,96.10
2019-04-16T05:11:39.042Z,96.00
2019-04-16T05:14:09.290Z,95.30
2019-04-16T05:16:39.037Z,95.20
2019-04-16T05:19:13.649Z,94.80
2019-04-16T05:21:40.200Z,94.30
2019-04-16T05:24:10.164Z,94.40
2019-04-16T05:26:41.439Z,94.40
2019-04-16T05:29:16.242Z,94.30
2019-04-16T05:31:43.387Z,94.50
2019-04-16T05:34:17.614Z,94.30
2019-04-16T05:36:47.945Z,93.70
2019-04-16T05:39:24.367Z,93.60
2019-04-16T05:41:54.830Z,93.00
2019-04-16T05:44:25.132Z,93.20
2019-04-16T05:46:55.075Z,91.30
2019-04-16T05:49:26.037Z,90.80
2019-04-16T05:52:04.724Z,91.10
2019-04-16T05:55:01.216Z,89.80
2019-04-16T05:57:37.534Z,88.80
2019-04-16T06:00:11.424Z,85.80
2019-04-16T06:02:42.719Z,81.50
2019-04-16T06:05:12.620Z,80.60
2019-04-16T06:07:42.991Z,82.00
2019-04-16T06:10:17.798Z,80.80
2019-04-16T06:13:11.718Z,76.70
2019-04-16T06:16:00.909Z,74.10
2019-04-16T06:18:49.129Z,75.20
2019-04-16T06:21:36.794Z,76.70
2019-04-16T06:24:40.058Z,74.60
2019-04-16T06:27:14.716Z,69.10
2019-04-16T06:30:06.426Z,63.00
2019-04-16T06:32:45.951Z,59.90
2019-04-16T06:35:43.424Z,57.10
2019-04-16T06:38:14.734Z,54.30
2019-04-16T06:40:50.676Z,52.00
2019-04-16T06:43:27.333Z,50.30
2019-04-16T06:46:11.354Z,47.40
2019-04-16T06:49:01.539Z,47.00
2019-04-16T06:51:56.125Z,46.50
2019-04-16T06:54:45.741Z,46.50
2019-04-16T06:57:46.253Z,46.20
2019-04-16T07:00:35.305Z,46.00
2019-04-16T07:03:27.433Z,47.10
2019-04-16T07:06:29.104Z,48.80
2019-04-16T07:09:24.070Z,50.20
2019-04-16T07:11:54.690Z,51.80
2019-04-16T07:14:23.709Z,52.60
2019-04-16T07:16:59.827Z,53.20
2019-04-16T07:19:27.474Z,53.50
2019-04-16T07:22:01.694Z,53.90
2019-04-16T07:24:36.100Z,54.40
2019-04-16T07:27:05.133Z,53.80
2019-04-16T07:29:46.129Z,53.70
2019-04-16T07:32:32.115Z,53.70
2019-04-16T07:35:32.371Z,53.20
2019-04-16T07:38:35.206Z,52.40
2019-04-16T07:41:22.891Z,52.20
2019-04-16T07:44:12.136Z,51.50
2019-04-16T07:47:04.341Z,50.50
2019-04-16T07:49:59.837Z,50.10
2019-04-16T07:52:54.213Z,49.60
2019-04-16T07:55:38.192Z,49.60
2019-04-16T07:58:14.354Z,49.60
2019-04-16T08:00:44.627Z,49.40
2019-04-16T08:03:14.374Z,48.20
2019-04-16T08:05:44.180Z,47.40
2019-04-16T08:08:24.322Z,47.10
2019-04-16T08:10:54.032Z,45.90
2019-04-16T08:13:25.284Z,45.00
2019-04-16T08:15:56.970Z,44.60
2019-04-16T08:18:26.845Z,43.70
2019-04-16T08:21:05.911Z,42.60
2019-04-16T08:23:40.158Z,40.90
2019-04-16T08:26:13.640Z,39.10
2019-04-16T08:28:43.066Z,37.60
2019-04-16T08:31:27.396Z,36.20
2019-04-16T08:33:57.443Z,35.70
2019-04-16T08:36:29.680Z,35.00
2019-04-16T08:39:05.837Z,34.30
2019-04-16T08:41:38.343Z,34.90
2019-04-16T08:44:09.988Z,35.50
2019-04-16T08:46:41.157Z,35.30
2019-04-16T08:49:14.776Z,35.00
2019-04-16T08:51:44.407Z,33.70
2019-04-16T08:54:18.196Z,33.80
2019-04-16T08:56:53.287Z,32.80
2019-04-16T08:59:23.130Z,33.60
2019-04-16T09:01:54.539Z,33.80
2019-04-16T09:04:24.092Z,33.40
2019-04-16T09:07:10.569Z,32.30
2019-04-16T09:09:57.642Z,32.50
2019-04-16T09:12:41.217Z,31.60
2019-04-16T09:15:09.591Z,31.20
2019-04-16T09:18:02.825Z,30.80
2019-04-16T09:20:38.551Z,30.00
2019-04-16T09:23:11.696Z,30.40
2019-04-16T09:26:14.046Z,30.60
2019-04-16T09:29:10.539Z,31.10
2019-04-16T09:31:56.621Z,30.50
2019-04-16T09:35:09.833Z,29.60
2019-04-16T09:38:05.205Z,28.90
2019-04-16T09:40:55.096Z,29.10
2019-04-16T09:43:28.630Z,28.90
2019-04-16T09:46:48.752Z,28.40
2019-04-16T09:48:49.662Z,27.80
2019-04-16T09:51:26.571Z,28.10
2019-04-16T09:53:58.443Z,28.80
2019-04-16T09:56:34.876Z,28.80
2019-04-16T09:59:32.409Z,28.00
2019-04-16T10:02:19.784Z,28.30
2019-04-16T10:04:50.008Z,27.60
2019-04-16T10:07:31.946Z,27.70
2019-04-16T10:10:05.022Z,27.80
2019-04-16T10:12:44.753Z,27.50
2019-04-16T10:15:16.522Z,27.30
2019-04-16T10:17:47.044Z,27.10
2019-04-16T10:20:19.672Z,27.30
2019-04-16T10:22:51.040Z,27.40
2019-04-16T10:25:22.781Z,26.80
2019-04-16T10:28:04.917Z,26.40
2019-04-16T10:31:11.615Z,26.80
2019-04-16T10:33:47.114Z,27.30
2019-04-16T10:36:17.195Z,27.00
2019-04-16T10:39:03.095Z,26.80
2019-04-16T10:41:56.412Z,26.90
2019-04-16T10:44:42.892Z,27.10
2019-04-16T10:47:55.139Z,26.60
2019-04-16T10:50:41.918Z,26.40
2019-04-16T10:53:30.384Z,26.20
2019-04-16T10:56:22.521Z,26.80
2019-04-16T10:59:25.172Z,26.50
2019-04-16T11:02:28.857Z,26.30
2019-04-16T11:05:20.270Z,26.20
2019-04-16T11:07:50.915Z,26.10
2019-04-16T11:10:21.717Z,25.60
2019-04-16T11:12:52.478Z,26.10
2019-04-16T11:15:28.554Z,26.30
2019-04-16T11:18:02.051Z,26.50
2019-04-16T11:20:37.005Z,27.20
2019-04-16T11:23:08.178Z,27.50
2019-04-16T11:25:38.566Z,27.20
2019-04-16T11:28:08.647Z,26.90
2019-04-16T11:30:48.883Z,26.50
2019-04-16T11:33:20.331Z,26.40
2019-04-16T11:35:59.582Z,26.30
2019-04-16T11:38:30.620Z,26.40
2019-04-16T11:41:01.227Z,27.00
2019-04-16T11:43:42.864Z,26.60
2019-04-16T11:46:14.716Z,26.40
2019-04-16T11:48:44.570Z,26.20
2019-04-16T11:51:17.992Z,26.10
2019-04-16T11:53:53.852Z,26.30
2019-04-16T11:56:26.770Z,26.80
2019-04-16T11:58:57.669Z,26.80
2019-04-16T12:01:41.076Z,26.90
2019-04-16T12:04:29.864Z,26.60
2019-04-16T12:07:18.751Z,26.40
2019-04-16T12:10:13.100Z,26.90
2019-04-16T12:13:08.404Z,28.00
2019-04-16T12:15:52.223Z,28.20
2019-04-16T12:18:33.113Z,27.80
2019-04-16T12:21:10.236Z,28.10
2019-04-16T12:24:12.754Z,28.20
2019-04-16T12:30:32.500Z,27.70
2019-04-16T12:33:20.324Z,28.50
2019-04-16T12:36:02.128Z,29.10
2019-04-16T12:38:45.379Z,29.20
2019-04-16T12:41:37.999Z,29.40
2019-04-16T12:44:45.145Z,29.60
2019-04-16T12:47:28.485Z,29.40
2019-04-16T12:50:30.650Z,29.50
2019-04-16T12:53:26.500Z,29.50
2019-04-16T12:56:12.515Z,29.30
2019-04-16T12:59:16.438Z,29.50
2019-04-16T13:02:12.117Z,29.20
2019-04-16T13:04:53.258Z,28.70
2019-04-16T13:07:26.730Z,29.80
2019-04-16T13:10:21.929Z,29.90
2019-04-16T13:13:02.956Z,29.60
2019-04-16T13:15:55.772Z,29.40
2019-04-16T13:18:46.955Z,29.30
2019-04-16T13:21:22.626Z,29.30
2019-04-16T13:24:09.857Z,29.60
2019-04-16T13:27:06.241Z,29.90
2019-04-16T13:29:39.265Z,30.60
2019-04-16T13:32:12.090Z,31.60
2019-04-16T13:34:47.689Z,31.60
2019-04-16T13:37:33.697Z,31.90
2019-04-16T13:40:16.900Z,31.40
2019-04-16T13:42:50.176Z,31.40
2019-04-16T13:45:47.525Z,30.40
2019-04-16T13:48:42.573Z,30.60
2019-04-16T13:51:18.816Z,32.50
2019-04-16T13:54:17.214Z,33.00
2019-04-16T13:57:03.114Z,33.30
2019-04-16T13:59:55.632Z,33.40
2019-04-16T14:02:50.779Z,34.30
2019-04-16T14:05:28.587Z,35.20
2019-04-16T14:08:01.873Z,36.40
2019-04-16T14:10:33.150Z,37.20
2019-04-16T14:13:04.024Z,37.00
2019-04-16T14:15:40.330Z,37.00
2019-04-16T14:18:16.851Z,37.40
2019-04-16T14:20:49.813Z,37.30
2019-04-16T14:23:23.100Z,37.10
2019-04-16T14:26:04.572Z,37.30
2019-04-16T14:28:51.290Z,37.50
2019-04-16T14:31:16.387Z,37.90
2019-04-16T14:34:16.522Z,38.10
2019-04-16T14:36:48.185Z,38.00
2019-04-16T14:39:46.795Z,38.30
2019-04-16T14:42:22.214Z,38.30
2019-04-16T14:44:57.761Z,38.30
2019-04-16T14:47:33.365Z,38.80
2019-04-16T14:50:06.765Z,39.20
2019-04-16T14:52:42.083Z,39.50
2019-04-16T14:55:19.192Z,39.60
2019-04-16T14:58:22.969Z,39.50
2019-04-16T15:01:10.022Z,39.60
2019-04-16T15:04:04.540Z,39.30
2019-04-16T15:07:02.624Z,39.30
2019-04-16T15:09:53.523Z,39.40
2019-04-16T15:12:48.721Z,39.80
2019-04-16T15:15:41.129Z,40.00
2019-04-16T15:18:31.859Z,40.20
2019-04-16T15:21:22.437Z,40.20
2019-04-16T15:24:12.238Z,40.40
2019-04-16T15:27:08.221Z,40.60
2019-04-16T15:30:02.170Z,40.60
2019-04-16T15:32:53.620Z,40.60
2019-04-16T15:35:57.147Z,40.60
2019-04-16T15:38:48.699Z,40.60
2019-04-16T15:41:44.617Z,40.90
2019-04-16T15:44:31.756Z,41.00
2019-04-16T15:47:37.403Z,41.40
2019-04-16T15:50:13.190Z,43.80
2019-04-16T15:52:59.995Z,45.00
2019-04-16T15:56:00.378Z,45.80
2019-04-16T15:58:46.840Z,46.20
2019-04-16T16:01:29.234Z,46.40
2019-04-16T16:04:22.555Z,47.10
2019-04-16T16:07:01.425Z,48.00
2019-04-16T16:10:13.979Z,48.50
2019-04-16T16:12:53.640Z,48.80
2019-04-16T16:15:23.237Z,48.60
2019-04-16T16:17:54.557Z,48.60
2019-04-16T16:20:30.108Z,49.00
2019-04-16T16:23:06.603Z,49.50
2019-04-16T16:25:41.409Z,49.70
2019-04-16T16:28:11.083Z,50.10
2019-04-16T16:30:44.521Z,50.60
2019-04-16T16:33:15.891Z,51.20
2019-04-16T16:35:56.923Z,51.70
2019-04-16T16:38:20.809Z,52.50
2019-04-16T16:41:16.012Z,54.10
2019-04-16T16:43:51.846Z,55.40
2019-04-16T16:46:56.460Z,55.20
2019-04-16T16:49:22.306Z,56.50
2019-04-16T16:52:21.081Z,58.50
2019-04-16T16:54:54.260Z,61.00
2019-04-16T16:57:32.839Z,62.70
2019-04-16T17:00:36.638Z,64.20
2019-04-16T17:03:31.076Z,65.40
2019-04-16T17:06:09.614Z,68.20
2019-04-16T17:08:44.215Z,69.10
2019-04-16T17:11:17.089Z,70.10
2019-04-16T17:13:58.364Z,71.90
2019-04-16T17:16:40.764Z,72.20
2019-04-16T17:19:23.301Z,76.90
2019-04-16T17:21:56.578Z,79.60
2019-04-16T17:24:27.190Z,80.90
2019-04-16T17:27:10.720Z,81.80
2019-04-16T17:29:50.883Z,86.40
2019-04-16T17:32:36.832Z,86.80
2019-04-16T17:35:30.460Z,87.90
2019-04-16T17:38:03.174Z,89.10
2019-04-16T17:40:51.160Z,88.50
2019-04-16T17:43:35.759Z,89.30
2019-04-16T17:46:28.758Z,90.50
2019-04-16T17:49:21.611Z,90.90
2019-04-16T17:52:37.523Z,91.90
2019-04-16T17:55:37.190Z,92.10
2019-04-16T17:59:05.545Z,92.50
2019-04-16T18:06:01.725Z,92.60
2019-04-16T18:08:54.450Z,93.30
2019-04-16T18:15:46.899Z,95.20
2019-04-16T18:19:12.214Z,95.40
2019-04-16T18:22:04.726Z,95.60
2019-04-16T18:25:03.952Z,96.00
2019-04-16T18:28:08.056Z,96.20
2019-04-16T18:31:10.347Z,95.20
2019-04-16T18:34:09.110Z,96.60
2019-04-16T18:37:00.792Z,95.40
2019-04-16T18:40:09.385Z,95.20
2019-04-16T18:43:18.829Z,94.80
2019-04-16T18:46:08.841Z,95.80
2019-04-16T18:48:47.396Z,96.50
2019-04-16T18:51:14.710Z,96.70
2019-04-16T18:53:53.667Z,97.30
2019-04-16T19:00:32.027Z,96.80
2019-04-16T19:03:07.719Z,97.20
2019-04-16T19:05:40.206Z,98.60
2019-04-16T19:08:23.238Z,99.10
2019-04-16T19:11:44.280Z,98.50
2019-04-16T19:14:58.224Z,98.70
2019-04-16T19:17:50.204Z,98.30
2019-04-16T19:20:45.767Z,98.20
2019-04-16T19:23:42.677Z,98.70
2019-04-16T19:26:20.087Z,98.80
2019-04-16T19:29:10.052Z,98.90
2019-04-16T19:31:44.246Z,99.10
2019-04-16T19:34:28.465Z,99.50
2019-04-16T19:37:16.210Z,99.00
2019-04-16T19:40:19.619Z,99.40
2019-04-16T19:42:51.433Z,99.90
2019-04-16T19:45:43.603Z,99.90
2019-04-16T19:48:34.231Z,99.90
2019-04-16T19:50:51.488Z,99.90
2019-04-16T19:53:24.818Z,99.90
2019-04-16T19:56:37.179Z,99.90
2019-04-16T19:59:07.647Z,99.90
2019-04-16T20:01:49.293Z,99.90
2019-04-16T20:04:32.274Z,99.90
2019-04-16T20:07:16.720Z,99.90
2019-04-16T20:09:54.116Z,99.90
2019-04-16T20:12:29.054Z,99.90
2019-04-16T20:15:12.427Z,99.90
2019-04-16T20:17:57.473Z,99.90
2019-04-16T20:20:38.246Z,99.90
2019-04-16T20:23:08.747Z,99.90
2019-04-16T20:25:41.722Z,99.90
2019-04-16T20:28:21.241Z,99.90
2019-04-16T20:31:03.535Z,99.90
2019-04-16T20:33:33.451Z,99.90
2019-04-16T20:36:22.726Z,99.90
2019-04-16T20:38:56.249Z,99.90
2019-04-16T20:41:29.170Z,99.90
2019-04-16T20:44:08.452Z,99.90
2019-04-16T20:46:43.488Z,99.90
2019-04-16T20:49:19.184Z,99.90
2019-04-16T20:52:00.614Z,99.90
2019-04-16T20:54:35.638Z,99.90
2019-04-16T20:57:05.726Z,99.90
2019-04-16T20:59:36.016Z,99.90
2019-04-16T21:02:20.415Z,99.90
2019-04-16T21:05:02.076Z,99.90
2019-04-16T21:07:31.297Z,99.90
2019-04-16T21:10:08.089Z,99.90
2019-04-16T21:12:33.326Z,99.90
2019-04-16T21:15:03.586Z,99.90
2019-04-16T21:17:38.231Z,99.90
2019-04-16T21:20:20.623Z,99.90
2019-04-16T21:23:14.401Z,99.90
2019-04-16T21:25:59.007Z,99.90
2019-04-16T21:28:48.161Z,99.90
2019-04-16T21:31:26.586Z,99.90
2019-04-16T21:34:29.739Z,99.90
2019-04-16T21:37:18.831Z,99.90
2019-04-16T21:39:58.331Z,99.90
2019-04-16T21:42:35.676Z,99.90
2019-04-16T21:45:09.170Z,99.90
2019-04-16T21:47:39.244Z,99.90
2019-04-16T21:50:16.333Z,99.90
2019-04-16T21:52:47.293Z,99.90
2019-04-16T21:55:17.588Z,99.90
2019-04-16T21:57:50.969Z,99.90
2019-04-16T22:00:59.777Z,99.90
2019-04-16T22:03:31.893Z,99.90
2019-04-16T22:06:02.921Z,99.90
2019-04-16T22:08:33.105Z,99.90
2019-04-16T22:11:03.159Z,99.90
2019-04-16T22:13:33.203Z,99.90
2019-04-16T22:16:03.495Z,99.90
2019-04-16T22:18:33.844Z,99.90
2019-04-16T22:21:04.038Z,99.90
2019-04-16T22:23:35.611Z,99.90
2019-04-16T22:26:11.003Z,99.90
2019-04-16T22:28:44.119Z,99.90
2019-04-16T22:31:20.843Z,99.90
2019-04-16T22:33:51.235Z,99.90
2019-04-16T22:36:21.399Z,99.90
2019-04-16T22:38:56.478Z,99.90
2019-04-16T22:41:35.100Z,99.90
2019-04-16T22:44:32.827Z,99.90
2019-04-16T22:47:08.650Z,99.90
2019-04-16T22:49:38.660Z,99.90
2019-04-16T22:52:12.208Z,99.90
2019-04-16T22:54:43.698Z,99.90
2019-04-16T22:57:14.796Z,99.90
2019-04-16T22:59:45.188Z,99.90
2019-04-16T23:02:19.367Z,99.90
2019-04-16T23:04:50.193Z,99.90
2019-04-16T23:07:20.154Z,99.90
2019-04-16T23:09:51.287Z,99.90
2019-04-16T23:12:28.402Z,99.90
2019-04-16T23:15:06.259Z,99.90
2019-04-16T23:17:37.642Z,99.90
2019-04-16T23:20:07.589Z,99.90
2019-04-16T23:25:30.382Z,99.90
2019-04-16T23:28:00.118Z,99.90
2019-04-16T23:30:36.128Z,99.90
2019-04-16T23:33:05.991Z,99.90
2019-04-16T23:35:44.293Z,99.90
2019-04-16T23:38:13.562Z,99.90
2019-04-16T23:40:44.750Z,99.90
2019-04-16T23:43:25.162Z,99.90
2019-04-16T23:46:12.593Z,99.90
2019-04-16T23:49:07.537Z,99.90
2019-04-16T23:51:41.653Z,99.90
2019-04-16T23:54:18.326Z,99.90
2019-04-16T23:57:13.119Z,99.90
2019-04-16T23:59:52.955Z,99.90
